Time;durP1;ratioP1;P1;durP2;ratioP2;P2;SDS_P1;SDS_P2;PMS_P1;PMS_P2;Temp;Humidity;BMP_temperature;BMP_pressure;BME280_temperature;BME280_humidity;BME280_pressure;Samples;Min_cycle;Max_cycle;Signal;HPM_P1;HPM_P2
2022/06/08 00:00:59;;;;;;;87.47;81.63;;;;;;;16.29;100.00;100771.45;1937767;73;26272;-75
2022/06/08 00:03:32;;;;;;;87.30;81.27;;;;;;;16.09;100.00;100763.05;1925831;73;26213;-74
2022/06/08 00:06:07;;;;;;;89.97;83.77;;;;;;;16.23;100.00;100770.77;2017965;70;24208;-76
2022/06/08 00:08:37;;;;;;;84.17;78.40;;;;;;;16.24;100.00;100757.59;1972123;72;26270;-76
2022/06/08 00:11:08;;;;;;;83.73;77.93;;;;;;;16.23;100.00;100758.16;1972203;72;24583;-76
2022/06/08 00:13:38;;;;;;;89.93;83.83;;;;;;;16.21;100.00;100755.45;1984937;72;26211;-76
2022/06/08 00:16:09;;;;;;;89.80;83.70;;;;;;;16.17;100.00;100753.84;1901088;74;24235;-76
2022/06/08 00:21:46;;;;;;;87.33;81.17;;;;;;;16.17;100.00;100741.84;2061063;69;32618;-76
2022/06/08 00:24:19;;;;;;;91.13;85.07;;;;;;;16.11;100.00;100741.72;1928767;73;26243;-75
2022/06/08 00:26:49;;;;;;;90.80;84.50;;;;;;;16.06;100.00;100733.45;2011916;70;24637;-75
2022/06/08 00:29:20;;;;;;;90.57;83.97;;;;;;;16.08;100.00;100733.97;2027088;70;26269;-76
2022/06/08 00:31:50;;;;;;;87.13;81.13;;;;;;;16.10;100.00;100724.65;2018857;70;24173;-75
2022/06/08 00:34:21;;;;;;;91.37;85.07;;;;;;;16.06;100.00;100725.05;2016992;70;24162;-76
2022/06/08 00:36:51;;;;;;;88.80;82.67;;;;;;;16.05;100.00;100715.81;2017004;71;26252;-76
2022/06/08 00:39:22;;;;;;;91.27;85.20;;;;;;;16.05;100.00;100715.81;2012963;70;24175;-76
2022/06/08 00:41:55;;;;;;;84.83;78.93;;;;;;;16.03;100.00;100710.30;2032701;70;24728;-76
2022/06/08 00:44:30;;;;;;;92.13;85.80;;;;;;;16.03;100.00;100710.30;2020121;70;24237;-75
2022/06/08 00:47:02;;;;;;;90.17;83.97;;;;;;;16.00;100.00;100701.98;2018507;70;26730;-75
2022/06/08 00:49:35;;;;;;;89.03;82.83;;;;;;;15.95;100.00;100696.52;2016927;70;26346;-75
2022/06/08 00:52:08;;;;;;;92.03;85.93;;;;;;;15.96;100.00;100694.55;2009152;70;24692;-76
2022/06/08 00:54:41;;;;;;;93.17;86.77;;;;;;;15.93;100.00;100688.43;2005845;70;26228;-75
2022/06/08 00:57:14;;;;;;;87.40;81.43;;;;;;;15.89;100.00;100681.83;2016840;70;26256;-75
2022/06/08 01:02:52;;;;;;;94.30;88.07;;;;;;;15.91;100.00;100656.30;2056483;69;32673;-74
2022/06/08 01:05:28;;;;;;;85.77;79.87;;;;;;;15.98;100.00;100666.45;1950757;73;24109;-74
2022/06/08 01:08:01;;;;;;;88.53;82.37;;;;;;;15.86;100.00;100663.45;2014147;70;24144;-74
2022/06/08 01:10:35;;;;;;;86.77;80.53;;;;;;;15.83;100.00;100655.11;1983182;72;26639;-77
2022/06/08 01:13:05;;;;;;;89.00;82.93;;;;;;;15.86;100.00;100645.25;1975164;72;26670;-76
2022/06/08 01:15:38;;;;;;;86.80;80.63;;;;;;;15.92;100.00;100643.36;1983143;72;26219;-77
2022/06/08 01:18:11;;;;;;;87.13;80.80;;;;;;;15.98;100.00;100640.41;1936679;73;26228;-77
2022/06/08 01:20:48;;;;;;;88.27;81.93;;;;;;;15.81;100.00;100636.98;1932208;74;26304;-77
2022/06/08 01:23:21;;;;;;;84.43;78.50;;;;;;;15.78;100.00;100629.25;1931652;73;26671;-77
2022/06/08 01:29:09;;;;;;;95.03;88.73;;;;;;;15.68;100.00;100615.53;2037182;69;32678;-75
2022/06/08 01:31:43;;;;;;;90.37;84.33;;;;;;;15.66;100.00;100623.45;2012300;70;26225;-75
2022/06/08 01:34:17;;;;;;;88.47;82.47;;;;;;;15.82;100.00;100621.27;2013211;70;26211;-75
2022/06/08 01:40:14;;;;;;;88.60;82.73;;;;;;;15.83;100.00;100598.30;2053080;69;32571;-77
2022/06/08 01:42:53;;;;;;;91.07;84.97;;;;;;;15.79;100.00;100600.89;2015024;70;26221;-74
2022/06/08 01:45:29;;;;;;;89.87;83.93;;;;;;;15.75;100.00;100596.27;2016425;71;26632;-75
2022/06/08 01:48:25;;;;;;;84.07;78.27;;;;;;;15.74;100.00;100596.87;2011889;70;24177;-75
2022/06/08 01:54:09;;;;;;;86.20;80.40;;;;;;;15.74;100.00;100567.47;2061050;69;33180;-77
2022/06/08 01:59:53;;;;;;;89.93;84.13;;;;;;;15.82;100.00;100555.45;2041616;69;32621;-76
2022/06/08 02:02:27;;;;;;;87.20;81.47;;;;;;;15.82;100.00;100555.45;2022930;70;26180;-76
2022/06/08 02:05:00;;;;;;;85.53;79.73;;;;;;;15.75;100.00;100548.66;2015955;70;26733;-76
2022/06/08 02:10:43;;;;;;;85.03;79.33;;;;;;;15.77;100.00;100533.77;2060695;69;32675;-76
2022/06/08 02:13:18;;;;;;;85.90;80.30;;;;;;;15.78;100.00;100538.23;2017449;70;26683;-76
2022/06/08 02:18:59;;;;;;;87.27;81.57;;;;;;;15.90;100.00;100537.00;2048889;69;32702;-76
2022/06/08 02:24:41;;;;;;;85.07;79.47;;;;;;;15.82;100.00;100543.42;2037836;69;32631;-74
2022/06/08 02:27:15;;;;;;;84.33;78.53;;;;;;;15.87;100.00;100545.47;1935445;73;26391;-75
2022/06/08 02:35:46;;;;;;;84.77;79.17;;;;;;;15.92;100.00;100531.30;1932817;73;26554;-76
2022/06/08 02:38:19;;;;;;;84.13;78.60;;;;;;;15.87;100.00;100532.86;2017243;70;26675;-75
2022/06/08 02:40:53;;;;;;;84.67;79.20;;;;;;;15.93;100.00;100515.33;2012336;70;26229;-76
2022/06/08 02:43:26;;;;;;;82.17;76.77;;;;;;;15.96;100.00;100516.06;2021253;70;26236;-75
2022/06/08 02:46:01;;;;;;;85.60;80.10;;;;;;;15.96;100.00;100516.06;1931701;73;26276;-76
2022/06/08 02:48:32;;;;;;;82.43;76.93;;;;;;;15.93;100.00;100509.72;1930875;73;26348;-76
2022/06/08 02:51:04;;;;;;;81.13;75.73;;;;;;;15.97;100.00;100503.70;1935153;73;24157;-76
2022/06/08 02:53:59;;;;;;;83.10;77.53;;;;;;;15.93;100.00;100499.34;1966627;72;24668;-76
2022/06/08 03:00:05;;;;;;;76.70;71.60;;;;;;;15.97;100.00;100465.89;2041239;69;32694;-77
2022/06/08 03:02:39;;;;;;;74.77;69.77;;;;;;;15.99;100.00;100479.58;2019127;70;24608;-77
2022/06/08 03:05:12;;;;;;;76.67;71.40;;;;;;;15.88;100.00;100468.69;2014668;70;26220;-76
2022/06/08 03:07:46;;;;;;;76.83;71.73;;;;;;;15.97;100.00;100470.09;1932904;73;26662;-76
2022/06/08 03:13:27;;;;;;;74.97;69.87;;;;;;;15.99;100.00;100445.96;2051954;69;32639;-76
2022/06/08 03:15:58;;;;;;;72.67;67.47;;;;;;;15.99;100.00;100445.96;1944108;73;24173;-75
2022/06/08 03:18:30;;;;;;;79.87;74.63;;;;;;;16.02;100.00;100441.09;1937981;73;26277;-75
2022/06/08 03:21:02;;;;;;;72.17;67.07;;;;;;;16.05;100.00;100432.83;1969822;72;26216;-75
2022/06/08 03:23:33;;;;;;;77.03;71.73;;;;;;;16.05;100.00;100432.83;1939817;73;26206;-74
2022/06/08 03:26:03;;;;;;;77.00;71.80;;;;;;;16.11;100.00;100430.13;1933079;73;24154;-74
2022/06/08 03:28:34;;;;;;;82.27;76.87;;;;;;;16.16;100.00;100436.95;1941645;74;26179;-75
2022/06/08 03:31:04;;;;;;;75.63;70.13;;;;;;;16.16;100.00;100432.75;1937037;73;26245;-75
2022/06/08 03:33:35;;;;;;;82.13;76.73;;;;;;;16.17;100.00;100437.17;1946345;73;26723;-76
2022/06/08 03:36:06;;;;;;;77.60;72.23;;;;;;;16.13;100.00;100434.80;1947681;73;24160;-76
2022/06/08 03:38:37;;;;;;;79.20;73.80;;;;;;;16.16;100.00;100434.16;1924157;74;24117;-76
2022/06/08 03:41:07;;;;;;;73.63;68.53;;;;;;;16.18;100.00;100436.60;1945244;73;26229;-75
2022/06/08 03:43:37;;;;;;;78.23;72.93;;;;;;;16.20;100.00;100434.30;1970846;72;24151;-76
2022/06/08 03:46:10;;;;;;;79.57;74.27;;;;;;;16.16;100.00;100425.75;1936527;72;24167;-75
2022/06/08 03:48:41;;;;;;;74.17;69.00;;;;;;;16.24;100.00;100435.28;1972260;73;26192;-75
2022/06/08 03:51:13;;;;;;;78.47;73.07;;;;;;;16.24;100.00;100435.28;1937777;74;24118;-76
2022/06/08 03:53:47;;;;;;;77.03;71.83;;;;;;;16.25;100.00;100428.53;1924891;74;26353;-76
2022/06/08 03:56:19;;;;;;;75.23;70.13;;;;;;;16.24;100.00;100433.88;1943879;73;26211;-75
2022/06/08 03:58:50;;;;;;;71.17;66.07;;;;;;;16.24;100.00;100433.88;1937724;74;24161;-76
2022/06/08 04:01:21;;;;;;;74.67;69.37;;;;;;;16.33;100.00;100436.92;1858219;73;937022;-76
2022/06/08 04:03:52;;;;;;;76.60;71.20;;;;;;;16.32;100.00;100431.63;1821059;78;24659;-76
2022/06/08 04:06:23;;;;;;;77.73;72.33;;;;;;;16.32;100.00;100433.03;1893562;74;24175;-76
2022/06/08 04:12:00;;;;;;;76.40;71.17;;;;;;;16.32;100.00;100424.05;2052268;69;30483;-72
2022/06/08 04:14:30;;;;;;;77.07;71.67;;;;;;;16.34;100.00;100437.14;2009461;70;24567;-72
2022/06/08 04:17:01;;;;;;;76.43;71.13;;;;;;;16.37;100.00;100439.87;2004534;70;26190;-72
2022/06/08 04:19:32;;;;;;;78.23;72.93;;;;;;;16.33;100.00;100440.30;2013517;70;24713;-72
2022/06/08 04:22:02;;;;;;;75.57;70.40;;;;;;;16.34;100.00;100435.73;2015529;70;26693;-72
2022/06/08 04:24:33;;;;;;;72.90;67.60;;;;;;;16.34;100.00;100433.54;1940762;73;24165;-72
2022/06/08 04:27:03;;;;;;;76.30;71.10;;;;;;;16.34;100.00;100439.94;1935593;73;24615;-72
2022/06/08 04:29:33;;;;;;;80.47;75.13;;;;;;;16.41;100.00;100446.45;1964678;72;24163;-72
2022/06/08 04:32:04;;;;;;;80.57;75.17;;;;;;;16.40;100.00;100441.42;1937042;73;24127;-72
2022/06/08 04:34:35;;;;;;;77.97;72.57;;;;;;;16.38;100.00;100438.72;1970632;72;26215;-72
2022/06/08 04:37:06;;;;;;;78.50;73.00;;;;;;;16.42;100.00;100436.89;1939225;73;24185;-72
2022/06/08 04:39:36;;;;;;;81.93;76.53;;;;;;;16.43;100.00;100439.92;1965792;72;24144;-72
2022/06/08 04:42:08;;;;;;;82.50;77.00;;;;;;;16.45;100.00;100452.20;1935768;72;26230;-73
2022/06/08 04:44:39;;;;;;;80.70;75.30;;;;;;;16.48;100.00;100458.55;1932910;73;26653;-72
2022/06/08 04:47:10;;;;;;;79.33;74.03;;;;;;;16.44;100.00;100456.98;1937655;73;26222;-72
2022/06/08 04:49:41;;;;;;;81.50;76.17;;;;;;;16.49;100.00;100463.00;2010721;70;26229;-72
2022/06/08 04:52:11;;;;;;;82.90;77.40;;;;;;;16.54;100.00;100453.02;2023107;70;24614;-72
2022/06/08 04:54:41;;;;;;;86.20;80.40;;;;;;;16.53;100.00;100447.98;2005050;70;26669;-72
2022/06/08 04:57:13;;;;;;;82.17;76.57;;;;;;;16.52;100.00;100439.89;2022009;70;26681;-71
2022/06/08 04:59:44;;;;;;;84.20;78.40;;;;;;;16.53;100.00;100433.95;1947710;73;24234;-72
2022/06/08 05:02:42;;;;;;;82.23;76.53;;;;;;;16.61;100.00;100436.52;1941463;73;24152;-72
2022/06/08 05:04:47;;;;;;;80.90;75.20;;;;;;;16.64;100.00;100442.30;1936540;74;24269;-72
2022/06/08 05:07:17;;;;;;;81.47;75.67;;;;;;;16.67;100.00;100447.23;1935626;73;26797;-74
2022/06/08 05:09:47;;;;;;;82.30;76.60;;;;;;;16.67;100.00;100448.62;1930990;74;26673;-74
2022/06/08 05:12:17;;;;;;;86.03;80.30;;;;;;;16.72;100.00;100449.03;1931740;72;26203;-72
2022/06/08 05:14:48;;;;;;;75.60;70.23;;;;;;;16.69;100.00;100442.66;1931649;74;24547;-73
2022/06/08 05:17:18;;;;;;;79.03;73.43;;;;;;;16.67;100.00;100440.80;1931817;74;24127;-72
2022/06/08 05:19:48;;;;;;;85.10;79.30;;;;;;;16.67;100.00;100440.80;1931673;74;26606;-72
2022/06/08 05:22:19;;;;;;;84.50;78.70;;;;;;;16.63;100.00;100438.42;1931232;74;26762;-72
2022/06/08 05:24:49;;;;;;;83.90;78.00;;;;;;;16.64;100.00;100431.66;1931038;74;26364;-72
2022/06/08 05:27:20;;;;;;;87.97;82.07;;;;;;;16.69;100.00;100432.84;1931157;74;24144;-72
2022/06/08 05:29:50;;;;;;;89.70;83.50;;;;;;;16.66;100.00;100427.34;1931028;74;26685;-72
2022/06/08 05:32:20;;;;;;;91.03;85.03;;;;;;;16.70;100.00;100430.30;1931242;74;24136;-72
2022/06/08 05:34:51;;;;;;;86.00;80.10;;;;;;;16.74;100.00;100428.46;1930924;74;26261;-72
2022/06/08 05:37:21;;;;;;;87.33;81.43;;;;;;;16.71;100.00;100439.78;1931061;74;26691;-72
2022/06/08 05:39:52;;;;;;;85.13;79.33;;;;;;;16.78;100.00;100451.88;1931084;74;24121;-72
2022/06/08 05:42:23;;;;;;;86.43;80.30;;;;;;;16.81;100.00;100452.62;1931246;74;26215;-72
2022/06/08 05:44:53;;;;;;;89.57;83.30;;;;;;;16.69;100.00;100455.28;1931258;74;24235;-71
2022/06/08 05:47:23;;;;;;;86.73;80.47;;;;;;;16.70;100.00;100454.95;1931090;74;24565;-71
2022/06/08 05:49:53;;;;;;;84.40;78.10;;;;;;;16.79;100.00;100454.92;1931108;74;24149;-71
2022/06/08 05:52:24;;;;;;;82.07;75.87;;;;;;;16.87;100.00;100446.22;1931083;74;26187;-72
2022/06/08 05:54:54;;;;;;;87.50;80.97;;;;;;;16.85;100.00;100440.97;1931121;74;24624;-71
2022/06/08 05:57:24;;;;;;;92.00;85.30;;;;;;;16.95;100.00;100453.20;1930895;74;24117;-71
2022/06/08 05:59:54;;;;;;;84.67;78.27;;;;;;;16.92;100.00;100448.27;1931075;74;24121;-72
2022/06/08 06:02:25;;;;;;;86.57;80.17;;;;;;;16.93;100.00;100440.10;1930988;74;24133;-72
2022/06/08 06:04:55;;;;;;;78.27;72.27;;;;;;;16.95;100.00;100450.39;1930882;74;26648;-72
2022/06/08 06:07:25;;;;;;;84.10;78.10;;;;;;;17.04;100.00;100444.16;1931109;74;24160;-72
2022/06/08 06:10:00;;;;;;;88.63;82.27;;;;;;;17.09;100.00;100449.58;1931149;74;24190;-73
2022/06/08 06:12:27;;;;;;;94.70;88.33;;;;;;;17.10;100.00;100456.84;1930419;72;24250;-72
2022/06/08 06:15:01;;;;;;;93.57;86.97;;;;;;;17.07;100.00;100451.89;1930953;74;26683;-71
2022/06/08 06:17:30;;;;;;;95.13;88.67;;;;;;;16.93;100.00;100454.70;1931400;74;24567;-73
2022/06/08 06:20:01;;;;;;;102.80;96.13;;;;;;;16.84;100.00;100454.17;1931056;74;24608;-73
2022/06/08 06:22:33;;;;;;;114.73;107.63;;;;;;;16.85;100.00;100460.61;1931032;74;26770;-72
2022/06/08 06:25:04;;;;;;;111.47;104.47;;;;;;;16.82;100.00;100458.45;1931125;74;24187;-71
2022/06/08 06:27:35;;;;;;;110.93;104.03;;;;;;;16.79;100.00;100458.56;1930998;74;24136;-71
2022/06/08 06:30:08;;;;;;;107.67;100.77;;;;;;;16.83;100.00;100452.52;1931103;74;24136;-72
2022/06/08 06:32:39;;;;;;;112.10;105.00;;;;;;;16.85;100.00;100447.98;1930969;74;24144;-71
2022/06/08 06:35:14;;;;;;;108.57;101.47;;;;;;;16.89;100.00;100452.33;1930914;74;24182;-71
2022/06/08 06:40:51;;;;;;;111.93;104.30;;;;;;;17.02;100.00;100445.09;2043355;69;30560;-72
2022/06/08 06:43:22;;;;;;;113.30;106.00;;;;;;;16.96;100.00;100457.66;1932305;73;24215;-73
2022/06/08 06:45:52;;;;;;;105.73;98.50;;;;;;;17.03;100.00;100462.14;1937457;73;26752;-72
2022/06/08 06:48:22;;;;;;;106.50;99.37;;;;;;;16.98;100.00;100467.15;1968964;72;26781;-71
2022/06/08 06:50:53;;;;;;;111.20;103.80;;;;;;;17.07;100.00;100462.32;1942092;73;24117;-72
2022/06/08 06:53:23;;;;;;;110.17;102.63;;;;;;;17.10;100.00;100464.44;1937559;73;26643;-71
2022/06/08 06:55:53;;;;;;;115.77;108.00;;;;;;;17.22;100.00;100467.34;1933914;73;24916;-71
2022/06/08 06:58:23;;;;;;;114.30;107.03;;;;;;;17.19;100.00;100470.83;1937721;74;26808;-73
2022/06/08 07:00:54;;;;;;;113.23;105.80;;;;;;;17.37;100.00;100468.75;1937555;74;26182;-71
2022/06/08 07:03:25;;;;;;;111.27;103.87;;;;;;;17.44;100.00;100471.83;1933837;73;24587;-71
2022/06/08 07:05:55;;;;;;;98.83;91.83;;;;;;;17.46;100.00;100475.94;1940034;73;24204;-71
2022/06/08 07:08:26;;;;;;;100.43;93.43;;;;;;;17.49;100.00;100475.85;1943379;73;24222;-71
2022/06/08 07:13:44;;;;;;;92.43;86.13;;;;;;;17.52;100.00;100482.19;1931962;74;24169;-67
2022/06/08 07:16:15;;;;;;;87.90;81.30;;;;;;;17.46;100.00;100490.55;1932968;74;24576;-68
2022/06/08 07:18:45;;;;;;;93.03;86.47;;;;;;;17.36;100.00;100490.39;1929835;74;26666;-71
2022/06/08 07:21:15;;;;;;;88.23;82.10;;;;;;;17.51;100.00;100493.16;1930998;74;24164;-69
2022/06/08 07:23:47;;;;;;;82.43;76.47;;;;;;;17.66;100.00;100489.80;1931751;74;24101;-69
2022/06/08 07:26:18;;;;;;;74.97;69.30;;;;;;;17.71;100.00;100491.02;1931712;74;26374;-71
2022/06/08 07:28:48;;;;;;;77.67;71.87;;;;;;;17.70;100.00;100495.80;1935419;74;24667;-70
2022/06/08 07:31:18;;;;;;;79.63;73.73;;;;;;;17.78;100.00;100482.85;1938994;74;26301;-68
2022/06/08 07:33:50;;;;;;;74.13;68.50;;;;;;;18.07;100.00;100486.16;1888149;75;24076;-68
2022/06/08 07:36:22;;;;;;;71.17;65.80;;;;;;;18.48;100.00;100485.28;1912879;75;24162;-69
2022/06/08 07:38:52;;;;;;;73.40;68.00;;;;;;;18.53;100.00;100481.67;1946618;72;24148;-68
2022/06/08 07:41:23;;;;;;;74.03;68.73;;;;;;;18.47;100.00;100490.08;1882549;76;24216;-68
2022/06/08 07:43:53;;;;;;;72.20;67.10;;;;;;;18.48;100.00;100479.66;1910076;74;24120;-68
2022/06/08 07:46:24;;;;;;;75.67;70.77;;;;;;;18.46;100.00;100486.20;1910109;74;24121;-68
2022/06/08 07:51:42;;;;;;;75.50;70.63;;;;;;;18.44;100.00;100492.77;1909470;75;24149;-69
2022/06/08 07:54:12;;;;;;;68.93;64.20;;;;;;;18.38;100.00;100485.70;1909404;74;24133;-69
2022/06/08 07:56:42;;;;;;;71.97;66.97;;;;;;;18.14;100.00;100495.67;1909497;74;24246;-69
2022/06/08 07:59:14;;;;;;;73.70;68.70;;;;;;;18.19;100.00;100491.83;1909382;74;24110;-70
2022/06/08 08:01:44;;;;;;;67.77;63.00;;;;;;;18.24;100.00;100490.80;1909645;74;24238;-69
2022/06/08 08:04:14;;;;;;;68.60;63.63;;;;;;;18.20;100.00;100488.68;1909486;75;24230;-69
2022/06/08 08:06:45;;;;;;;72.70;67.70;;;;;;;18.28;100.00;100487.53;1909416;74;24222;-69
2022/06/08 08:09:18;;;;;;;71.27;66.07;;;;;;;18.38;100.00;100492.73;1909448;74;26622;-72
2022/06/08 08:11:52;;;;;;;70.00;65.10;;;;;;;18.33;100.00;100495.75;1909337;74;24179;-71
2022/06/08 08:14:24;;;;;;;71.33;66.40;;;;;;;18.39;100.00;100496.61;1909445;74;24568;-73
2022/06/08 08:16:55;;;;;;;75.60;70.47;;;;;;;18.34;100.00;100488.39;1909493;74;24136;-72
2022/06/08 08:19:26;;;;;;;72.33;67.13;;;;;;;18.45;100.00;100481.73;1909521;74;24568;-71
2022/06/08 08:21:57;;;;;;;68.83;64.10;;;;;;;18.40;100.00;100489.00;1909392;74;24132;-70
2022/06/08 08:24:27;;;;;;;69.30;64.50;;;;;;;18.25;100.00;100489.63;1909281;75;24128;-70
2022/06/08 08:26:58;;;;;;;68.50;63.77;;;;;;;18.16;100.00;100496.16;1909417;74;24131;-70
2022/06/08 08:29:28;;;;;;;76.00;70.73;;;;;;;18.14;100.00;100492.06;1909454;74;24229;-70
2022/06/08 08:31:58;;;;;;;76.23;70.97;;;;;;;18.20;100.00;100497.11;1909404;74;24254;-70
2022/06/08 08:34:28;;;;;;;71.87;66.73;;;;;;;18.12;100.00;100492.98;1909502;74;24204;-71
2022/06/08 08:36:59;;;;;;;72.17;67.13;;;;;;;18.24;100.00;100493.03;1909384;74;26651;-70
2022/06/08 08:39:29;;;;;;;66.57;61.97;;;;;;;18.41;100.00;100486.41;1909188;73;24147;-70
2022/06/08 08:44:53;;;;;;;57.00;53.60;;;;;;;18.74;100.00;100463.91;1909614;74;26715;-71
2022/06/08 08:47:34;;;;;;;56.43;52.70;;;;;;;18.81;100.00;100470.61;1909475;75;24215;-71
2022/06/08 08:53:20;;;;;;;59.80;56.13;;;;;;;19.20;100.00;100460.66;2045539;69;30542;-71
2022/06/08 08:55:53;;;;;;;57.30;54.00;;;;;;;19.33;100.00;100465.70;2018264;70;24251;-70
2022/06/08 08:58:27;;;;;;;52.43;49.20;;;;;;;19.16;100.00;100461.13;2016688;70;26697;-68
2022/06/08 09:01:00;;;;;;;51.20;48.30;;;;;;;19.24;100.00;100464.99;2020493;70;24222;-70
2022/06/08 09:03:33;;;;;;;54.57;51.47;;;;;;;19.26;100.00;100456.99;1937729;73;26750;-69
2022/06/08 09:06:08;;;;;;;55.93;52.47;;;;;;;19.33;100.00;100467.10;1937683;74;24120;-68
2022/06/08 09:08:39;;;;;;;51.93;48.93;;;;;;;19.28;100.00;100463.11;1931595;74;24210;-69
2022/06/08 09:14:23;;;;;;;56.67;53.27;;;;;;;19.64;100.00;100452.42;2060776;69;30591;-68
2022/06/08 09:16:56;;;;;;;53.90;50.47;;;;;;;19.62;100.00;100461.22;2016608;70;24148;-69
2022/06/08 09:19:35;;;;;;;57.67;54.23;;;;;;;19.61;100.00;100460.98;2014029;71;24247;-69
2022/06/08 09:22:28;;;;;;;53.67;50.60;;;;;;;19.52;100.00;100457.47;2017532;70;24204;-67
2022/06/08 09:25:02;;;;;;;57.57;54.17;;;;;;;19.46;100.00;100465.36;1938948;73;24604;-68
2022/06/08 09:27:36;;;;;;;57.40;53.90;;;;;;;19.64;100.00;100460.26;1937680;73;24230;-69
2022/06/08 09:30:19;;;;;;;50.13;47.27;;;;;;;19.84;100.00;100457.87;1934301;73;24188;-69
2022/06/08 09:32:51;;;;;;;55.20;52.13;;;;;;;19.80;100.00;100463.17;1965314;72;24182;-68
2022/06/08 09:35:27;;;;;;;54.50;51.60;;;;;;;20.00;100.00;100458.75;1927005;73;24158;-68
2022/06/08 09:38:02;;;;;;;51.73;48.77;;;;;;;19.88;100.00;100467.27;2007390;70;24159;-68
2022/06/08 09:40:41;;;;;;;58.47;54.97;;;;;;;19.55;100.00;100467.44;2015304;70;24291;-68
2022/06/08 09:52:57;;;;;;;53.00;50.03;;;;;;;19.85;100.00;100450.25;2060506;69;30567;-68
2022/06/08 09:55:32;;;;;;;59.13;55.63;;;;;;;19.87;100.00;100460.56;2017813;70;24153;-68
2022/06/08 09:58:09;;;;;;;53.30;50.13;;;;;;;20.16;100.00;100465.85;2007733;70;24664;-68
2022/06/08 10:00:43;;;;;;;51.83;48.73;;;;;;;20.04;100.00;100459.44;2018446;70;24136;-68
2022/06/08 10:03:35;;;;;;;53.00;50.00;;;;;;;20.08;100.00;100464.59;2018064;70;24166;-69
2022/06/08 10:09:21;;;;;;;53.15;50.15;;;;;;;20.10;100.00;100456.03;2045922;69;30528;-68
2022/06/08 10:11:56;;;;;;;50.80;47.93;;;;;;;19.99;100.00;100475.44;2016059;70;24665;-68
2022/06/08 10:14:30;;;;;;;58.23;54.90;;;;;;;19.81;100.00;100478.92;2023230;70;26805;-69
2022/06/08 10:17:04;;;;;;;55.97;52.63;;;;;;;19.88;100.00;100474.89;2008436;70;24604;-67
2022/06/08 10:19:38;;;;;;;56.30;53.07;;;;;;;19.91;100.00;100465.72;2008276;70;24216;-68
2022/06/08 10:22:10;;;;;;;53.87;50.67;;;;;;;20.13;100.00;100480.68;2004591;70;24144;-68
2022/06/08 10:24:47;;;;;;;51.60;48.50;;;;;;;20.22;100.00;100468.66;1946171;73;24132;-69
2022/06/08 10:27:20;;;;;;;50.47;47.27;;;;;;;20.36;100.00;100464.88;1966061;73;24100;-69
2022/06/08 10:29:56;;;;;;;48.57;45.77;;;;;;;20.45;100.00;100472.55;1934350;73;24188;-69
2022/06/08 10:32:29;;;;;;;47.77;45.07;;;;;;;20.55;100.00;100458.52;1934355;73;24583;-69
2022/06/08 10:38:09;;;;;;;37.47;35.57;;;;;;;20.67;100.00;100455.61;2051013;69;30572;-69
2022/06/08 10:40:51;;;;;;;34.45;32.45;;;;;;;20.59;100.00;100457.20;2017181;70;24698;-68
2022/06/08 10:43:25;;;;;;;32.80;30.90;;;;;;;20.33;100.00;100471.80;1937703;74;24426;-68
2022/06/08 10:46:00;;;;;;;31.43;29.63;;;;;;;20.32;100.00;100470.18;1934543;73;24287;-68
2022/06/08 10:48:48;;;;;;;30.73;29.03;;;;;;;20.47;100.00;100460.92;2008342;70;24304;-68
2022/06/08 10:51:41;;;;;;;30.77;29.17;;;;;;;20.83;100.00;100464.11;2024078;70;24157;-68
2022/06/08 10:54:55;;;;;;;28.30;26.80;;;;;;;21.05;100.00;100464.86;1935430;73;24140;-68
2022/06/08 10:58:04;;;;;;;27.65;26.35;;;;;;;21.06;100.00;100467.09;2009836;70;24186;-68
2022/06/08 11:00:58;;;;;;;29.50;28.10;;;;;;;20.62;100.00;100483.30;2015513;70;24148;-69
2022/06/08 11:03:50;;;;;;;30.88;29.18;;;;;;;20.59;100.00;100482.01;2016539;70;24138;-70
2022/06/08 11:10:11;;;;;;;30.97;29.37;;;;;;;20.75;100.00;100487.70;2045353;69;30561;-70
2022/06/08 11:13:03;;;;;;;30.08;28.57;;;;;;;20.87;100.00;100491.26;1935421;73;24156;-68
2022/06/08 11:15:47;;;;;;;34.30;32.30;;;;;;;20.92;100.00;100493.58;1934622;73;24641;-69
2022/06/08 11:18:25;;;;;;;31.48;29.55;;;;;;;21.10;100.00;100492.84;2006919;70;24631;-68
2022/06/08 11:21:08;;;;;;;25.73;24.33;;;;;;;21.11;100.00;100495.07;1947766;73;24699;-67
2022/06/08 11:23:42;;;;;;;26.33;24.83;;;;;;;20.92;100.00;100487.94;1940551;73;24618;-68
2022/06/08 11:26:29;;;;;;;27.30;25.57;;;;;;;20.96;100.00;100494.49;2009696;70;24262;-69
2022/06/08 11:29:01;;;;;;;26.35;24.82;;;;;;;21.05;100.00;100487.45;2014149;70;24690;-68
2022/06/08 11:31:53;;;;;;;26.52;25.02;;;;;;;20.96;100.00;100481.20;2016856;70;24625;-68
2022/06/08 11:34:41;;;;;;;27.75;26.15;;;;;;;20.90;100.00;100490.52;2016754;70;24636;-69
2022/06/08 11:37:19;;;;;;;28.03;26.30;;;;;;;20.89;100.00;100494.52;2017258;70;24169;-68
2022/06/08 11:43:01;;;;;;;29.60;27.85;;;;;;;21.03;100.00;100480.55;2051986;69;30517;-69
2022/06/08 11:45:42;;;;;;;28.05;26.55;;;;;;;21.13;100.00;100487.10;2016902;70;24595;-69
2022/06/08 11:48:15;;;;;;;29.43;27.83;;;;;;;21.19;100.00;100482.80;1972117;73;24107;-68
2022/06/08 11:50:52;;;;;;;25.75;24.15;;;;;;;21.33;100.00;100481.16;1936017;73;24211;-69
2022/06/08 11:53:28;;;;;;;25.05;23.85;;;;;;;21.39;100.00;100482.29;1933008;74;24204;-69
2022/06/08 11:56:02;;;;;;;29.48;27.95;;;;;;;21.02;100.00;100482.55;1934334;73;24595;-69
2022/06/08 11:58:35;;;;;;;24.92;23.67;;;;;;;21.13;100.00;100486.52;1963974;72;24147;-69
2022/06/08 12:01:10;;;;;;;18.23;17.42;;;;;;;21.22;100.00;100484.91;1937666;73;24145;-69
2022/06/08 12:03:44;;;;;;;21.33;19.90;;;;;;;21.18;100.00;100490.45;1936731;73;24184;-68
2022/06/08 12:06:22;;;;;;;18.35;17.40;;;;;;;21.38;100.00;100487.71;1922348;74;24634;-68
2022/06/08 12:08:55;;;;;;;20.20;19.02;;;;;;;21.34;100.00;100502.58;1895710;74;24263;-67
2022/06/08 12:14:35;;;;;;;18.42;17.45;;;;;;;21.55;100.00;100497.20;2036822;69;30524;-67
2022/06/08 12:17:09;;;;;;;17.57;16.62;;;;;;;21.63;100.00;100495.59;1937005;73;24116;-68
2022/06/08 12:19:45;;;;;;;15.08;14.28;;;;;;;21.70;100.00;100500.58;1937644;73;24611;-67
2022/06/08 12:22:21;;;;;;;14.95;14.03;;;;;;;21.63;100.00;100504.08;1965492;72;24120;-68
2022/06/08 12:25:08;;;;;;;16.60;15.80;;;;;;;21.44;100.00;100501.17;1930195;73;24162;-67
2022/06/08 12:27:44;;;;;;;14.25;13.48;;;;;;;21.59;100.00;100506.00;2007903;70;24209;-67
2022/06/08 12:30:24;;;;;;;14.45;13.68;;;;;;;21.52;100.00;100495.92;2016850;70;24223;-67
2022/06/08 12:32:58;;;;;;;15.90;15.20;;;;;;;21.47;100.00;100506.70;2016653;71;24138;-69
2022/06/08 12:35:31;;;;;;;13.60;12.90;;;;;;;21.45;100.00;100508.48;2016438;70;24201;-66
2022/06/08 12:38:16;;;;;;;12.85;12.05;;;;;;;21.54;100.00;100494.97;2026471;70;24697;-70
2022/06/08 12:44:19;;;;;;;13.10;12.35;;;;;;;21.73;100.00;100492.20;2052745;69;30494;-67
2022/06/08 12:46:54;;;;;;;13.68;12.98;;;;;;;21.77;100.00;100495.93;1935307;73;24164;-69
2022/06/08 12:49:27;;;;;;;13.48;12.73;;;;;;;21.79;100.00;100502.02;2014466;70;24259;-67
2022/06/08 12:51:59;;;;;;;11.75;11.15;;;;;;;21.79;100.00;100500.61;2016601;70;24182;-68
2022/06/08 12:54:32;;;;;;;11.90;11.15;;;;;;;21.66;100.00;100508.16;2025384;70;24213;-68
2022/06/08 12:57:14;;;;;;;14.00;13.00;;;;;;;21.60;100.00;100497.75;2012502;70;24179;-68
2022/06/08 12:59:45;;;;;;;13.10;12.28;;;;;;;21.73;100.00;100506.34;2026824;70;24744;-68